Time;durP1;ratioP1;P1;durP2;ratioP2;P2;SDS_P1;SDS_P2;PMS_P1;PMS_P2;Temp;Humidity;BMP_temperature;BMP_pressure;BME280_temperature;BME280_humidity;BME280_pressure;Samples;Min_cycle;Max_cycle;Signal;HPM_P1;HPM_P2
2021/09/09 00:01:29;;;;;;;8.23;7.53;;;25.70;55.20;;;;;;5096775;28;20189;-70
2021/09/09 00:04:00;;;;;;;9.37;8.47;;;25.70;54.60;;;;;;5089777;28;20626;-70
2021/09/09 00:06:33;;;;;;;8.50;7.80;;;25.70;54.60;;;;;;5105760;28;20204;-70
2021/09/09 00:09:04;;;;;;;9.17;8.30;;;25.70;54.70;;;;;;5098885;28;20216;-70
2021/09/09 00:11:32;;;;;;;8.97;8.17;;;25.70;54.70;;;;;;5103579;27;20282;-70
2021/09/09 00:14:03;;;;;;;8.23;7.53;;;25.70;54.70;;;;;;5112205;28;20229;-71
2021/09/09 00:16:41;;;;;;;8.70;7.93;;;25.70;54.70;;;;;;5093906;28;20197;-70
2021/09/09 00:19:13;;;;;;;8.83;8.03;;;25.70;54.80;;;;;;5105607;28;20211;-70
2021/09/09 00:21:43;;;;;;;9.40;8.60;;;25.60;54.70;;;;;;5077407;27;20208;-71
2021/09/09 00:24:13;;;;;;;9.63;8.80;;;25.60;54.70;;;;;;5081341;28;20212;-70
2021/09/09 00:26:43;;;;;;;9.03;8.00;;;25.60;54.70;;;;;;5094099;28;20207;-70
2021/09/09 00:29:12;;;;;;;8.57;7.77;;;25.60;54.70;;;;;;5072229;28;20990;-70
2021/09/09 00:31:41;;;;;;;9.43;8.53;;;25.60;54.70;;;;;;5102570;28;20196;-70
2021/09/09 00:34:12;;;;;;;9.17;8.37;;;25.60;54.80;;;;;;5104120;27;20240;-70
2021/09/09 00:36:43;;;;;;;9.57;8.63;;;25.60;54.70;;;;;;5106327;27;20695;-70
2021/09/09 00:39:15;;;;;;;9.23;8.43;;;25.60;54.70;;;;;;5086532;28;20204;-70
2021/09/09 00:41:43;;;;;;;9.00;8.10;;;25.60;54.80;;;;;;5107801;27;20200;-70
2021/09/09 00:44:29;;;;;;;9.03;8.23;;;25.60;54.80;;;;;;5086721;27;20971;-70
2021/09/09 00:47:09;;;;;;;8.97;8.10;;;25.60;54.80;;;;;;5106991;28;20206;-71
2021/09/09 00:49:46;;;;;;;9.07;8.27;;;25.60;54.90;;;;;;5105632;28;20544;-70
2021/09/09 00:52:15;;;;;;;8.67;7.87;;;25.50;54.90;;;;;;5106974;28;20524;-70
2021/09/09 00:54:47;;;;;;;8.33;7.53;;;25.50;54.80;;;;;;5060815;28;21227;-71
2021/09/09 00:57:20;;;;;;;9.77;8.77;;;25.50;54.90;;;;;;5070965;28;20266;-71
2021/09/09 00:59:52;;;;;;;9.37;8.40;;;25.50;54.90;;;;;;5088121;28;20207;-70
2021/09/09 01:02:23;;;;;;;9.27;8.37;;;25.50;54.90;;;;;;5102006;27;20253;-70
2021/09/09 01:04:53;;;;;;;9.03;8.23;;;25.50;54.90;;;;;;5100302;28;20210;-70
2021/09/09 01:07:25;;;;;;;9.40;8.50;;;25.50;55.00;;;;;;5085557;28;20207;-70
2021/09/09 01:10:16;;;;;;;8.53;7.73;;;25.50;55.00;;;;;;5090157;28;20269;-70
2021/09/09 01:12:47;;;;;;;8.80;8.00;;;25.50;55.00;;;;;;5099827;27;20226;-70
2021/09/09 01:15:18;;;;;;;9.20;8.40;;;25.50;55.00;;;;;;5103366;28;20208;-70
2021/09/09 01:17:49;;;;;;;9.40;8.50;;;25.50;55.00;;;;;;5085996;28;20196;-70
2021/09/09 01:20:17;;;;;;;9.40;8.50;;;25.40;55.10;;;;;;5110064;27;20208;-69
2021/09/09 01:22:44;;;;;;;9.17;8.37;;;25.50;55.00;;;;;;5084314;28;20219;-69
2021/09/09 01:25:13;;;;;;;8.63;7.90;;;25.50;55.10;;;;;;5094086;28;20304;-69
2021/09/09 01:27:45;;;;;;;8.03;7.33;;;25.40;55.00;;;;;;5103974;28;20188;-69
2021/09/09 01:30:16;;;;;;;8.30;7.60;;;25.40;55.10;;;;;;5109956;28;20592;-69
2021/09/09 01:32:45;;;;;;;8.53;7.73;;;25.40;55.10;;;;;;5103928;28;20224;-70
2021/09/09 01:35:14;;;;;;;9.40;8.37;;;25.40;55.10;;;;;;5090690;28;20215;-70
2021/09/09 01:37:44;;;;;;;8.80;7.90;;;25.40;55.20;;;;;;5113210;28;20192;-70
2021/09/09 01:40:12;;;;;;;8.63;7.83;;;25.40;55.20;;;;;;5094789;28;20196;-70
2021/09/09 01:42:50;;;;;;;8.97;8.20;;;25.40;55.10;;;;;;5112179;28;20203;-70
2021/09/09 01:45:22;;;;;;;14.43;8.43;;;25.40;55.10;;;;;;5088408;28;20626;-70
2021/09/09 01:47:51;;;;;;;8.67;7.73;;;25.40;55.20;;;;;;5106812;28;20842;-70
2021/09/09 01:50:23;;;;;;;9.13;8.33;;;25.40;55.20;;;;;;5050809;28;20208;-70
2021/09/09 01:52:54;;;;;;;9.53;8.53;;;25.40;55.20;;;;;;5091196;28;20200;-70
2021/09/09 01:55:26;;;;;;;8.87;8.10;;;25.40;55.20;;;;;;5113237;28;20196;-70
2021/09/09 01:57:56;;;;;;;9.57;8.70;;;25.40;55.20;;;;;;5110824;28;20197;-70
2021/09/09 02:00:28;;;;;;;8.80;8.10;;;25.40;55.20;;;;;;5094117;28;20196;-70
2021/09/09 02:02:56;;;;;;;9.60;8.70;;;25.40;55.20;;;;;;5111975;28;20379;-70
2021/09/09 02:05:27;;;;;;;8.40;7.70;;;25.40;55.20;;;;;;5112479;28;20196;-69
2021/09/09 02:08:02;;;;;;;8.77;7.97;;;25.30;55.10;;;;;;5108416;28;20192;-70
2021/09/09 02:10:33;;;;;;;9.20;8.37;;;25.40;55.20;;;;;;5113638;28;20188;-70
2021/09/09 02:13:05;;;;;;;8.60;7.87;;;25.40;55.10;;;;;;5111719;28;20201;-69
2021/09/09 02:15:36;;;;;;;9.07;8.17;;;25.30;55.10;;;;;;5112193;28;20231;-70
2021/09/09 02:18:08;;;;;;;8.53;7.67;;;25.40;55.20;;;;;;5110894;28;20340;-70
2021/09/09 02:20:38;;;;;;;9.30;8.50;;;25.30;55.10;;;;;;5111926;28;20211;-70
2021/09/09 02:23:07;;;;;;;8.57;7.77;;;25.30;55.10;;;;;;5094444;28;20630;-70
2021/09/09 02:25:35;;;;;;;8.80;8.00;;;25.30;55.10;;;;;;5110107;28;20206;-70
2021/09/09 02:28:09;;;;;;;8.60;7.70;;;25.30;55.10;;;;;;5097312;28;20203;-70
2021/09/09 02:30:50;;;;;;;9.33;8.43;;;25.30;55.10;;;;;;5086178;28;20207;-70
2021/09/09 02:33:20;;;;;;;8.60;7.80;;;25.30;55.10;;;;;;5109776;28;20643;-71
2021/09/09 02:35:50;;;;;;;8.63;7.83;;;25.30;55.20;;;;;;5109032;28;20208;-70
2021/09/09 02:38:19;;;;;;;9.80;8.27;;;25.30;55.10;;;;;;5078757;28;20227;-70
2021/09/09 02:40:48;;;;;;;8.80;8.00;;;25.30;55.10;;;;;;5109295;28;20196;-69
2021/09/09 02:43:18;;;;;;;9.40;8.50;;;25.30;55.10;;;;;;5079141;28;20629;-69
2021/09/09 02:45:47;;;;;;;8.07;7.37;;;25.20;55.00;;;;;;5111313;27;20193;-69
2021/09/09 02:48:23;;;;;;;8.73;8.03;;;25.30;55.20;;;;;;5111693;28;20228;-70
2021/09/09 02:50:55;;;;;;;8.60;7.83;;;25.20;55.10;;;;;;5111528;28;20181;-70
2021/09/09 02:53:25;;;;;;;7.90;7.10;;;25.30;55.10;;;;;;5102086;28;20203;-69
2021/09/09 02:55:56;;;;;;;8.57;7.87;;;25.20;55.10;;;;;;5075551;28;20192;-69
2021/09/09 02:58:25;;;;;;;8.13;7.43;;;25.20;55.10;;;;;;5110832;28;20204;-70
2021/09/09 03:00:54;;;;;;;8.40;7.67;;;25.20;55.10;;;;;;5099256;28;20190;-69
2021/09/09 03:03:24;;;;;;;9.00;8.17;;;25.20;55.10;;;;;;5110744;28;20239;-70
2021/09/09 03:05:56;;;;;;;8.63;7.87;;;25.20;55.00;;;;;;5091824;28;20193;-69
2021/09/09 03:08:25;;;;;;;8.50;7.80;;;25.20;55.10;;;;;;5103994;28;20195;-69
2021/09/09 03:10:57;;;;;;;8.73;8.03;;;25.20;55.10;;;;;;5110223;28;20641;-69
2021/09/09 03:13:26;;;;;;;8.20;7.57;;;25.20;55.00;;;;;;5108906;28;20682;-70
2021/09/09 03:15:56;;;;;;;8.93;8.13;;;25.20;55.10;;;;;;5112466;28;20192;-69
2021/09/09 03:18:26;;;;;;;9.17;8.37;;;25.20;55.10;;;;;;5109663;28;20201;-70
2021/09/09 03:20:58;;;;;;;9.07;8.17;;;25.20;55.10;;;;;;5110237;28;20192;-70
2021/09/09 03:23:27;;;;;;;8.73;8.03;;;25.20;55.10;;;;;;5090279;28;20192;-70
2021/09/09 03:25:56;;;;;;;8.50;7.80;;;25.20;55.10;;;;;;5107554;28;20232;-69
2021/09/09 03:28:25;;;;;;;8.70;7.97;;;25.20;55.10;;;;;;5107625;28;20201;-69
2021/09/09 03:30:55;;;;;;;8.63;7.93;;;25.20;55.10;;;;;;5111531;28;20224;-69
2021/09/09 03:33:26;;;;;;;9.30;8.23;;;25.10;55.10;;;;;;5107608;28;20227;-69
2021/09/09 03:35:58;;;;;;;8.77;7.93;;;25.10;55.00;;;;;;5092127;28;20211;-70
2021/09/09 03:38:30;;;;;;;8.80;7.87;;;25.10;55.10;;;;;;5083850;28;20612;-69
2021/09/09 03:41:03;;;;;;;8.67;7.87;;;25.10;55.20;;;;;;5107026;27;20209;-69
2021/09/09 03:43:34;;;;;;;9.37;8.20;;;25.20;55.30;;;;;;5089608;28;20751;-69
2021/09/09 03:46:04;;;;;;;9.03;7.73;;;25.10;55.20;;;;;;5109725;28;20200;-69
2021/09/09 03:48:33;;;;;;;9.23;8.43;;;25.10;55.20;;;;;;5064408;28;20287;-69
2021/09/09 03:51:04;;;;;;;8.83;8.07;;;25.10;55.10;;;;;;5089608;28;20231;-69
2021/09/09 03:53:34;;;;;;;9.20;8.40;;;25.10;55.10;;;;;;5096978;28;20631;-70
2021/09/09 03:56:07;;;;;;;9.30;8.17;;;25.10;55.20;;;;;;5106859;28;20247;-70
2021/09/09 03:58:38;;;;;;;8.73;7.93;;;25.10;55.10;;;;;;5079346;28;20214;-69
2021/09/09 04:01:09;;;;;;;8.80;8.00;;;25.00;55.10;;;;;;5089416;28;20660;-69
2021/09/09 04:03:39;;;;;;;9.00;8.10;;;25.10;55.10;;;;;;5111187;28;20196;-69
2021/09/09 04:06:10;;;;;;;9.07;8.27;;;25.10;55.10;;;;;;5108336;28;20204;-69
2021/09/09 04:08:40;;;;;;;8.53;7.73;;;25.10;55.10;;;;;;5097751;28;20200;-69
2021/09/09 04:11:08;;;;;;;8.80;7.97;;;25.10;55.10;;;;;;5101048;28;20196;-69
2021/09/09 04:13:36;;;;;;;9.10;8.30;;;25.10;55.60;;;;;;5081803;28;20192;-70
2021/09/09 04:16:06;;;;;;;8.50;7.70;;;25.10;55.00;;;;;;5082479;28;20189;-70
2021/09/09 04:18:38;;;;;;;8.27;7.47;;;25.00;55.00;;;;;;5084055;28;20200;-69
2021/09/09 04:21:11;;;;;;;8.30;7.60;;;25.00;54.90;;;;;;5080222;28;20193;-70
2021/09/09 04:23:44;;;;;;;8.73;7.97;;;25.10;55.00;;;;;;5102396;28;20221;-70
2021/09/09 04:26:12;;;;;;;8.80;7.80;;;25.00;54.90;;;;;;5100905;28;20211;-70
2021/09/09 04:28:43;;;;;;;8.77;8.00;;;25.00;54.90;;;;;;5105026;28;20204;-70
2021/09/09 04:31:14;;;;;;;8.43;7.63;;;25.00;54.90;;;;;;5106485;28;20210;-70
2021/09/09 04:33:45;;;;;;;7.77;7.10;;;25.00;54.90;;;;;;5105848;28;20287;-70
2021/09/09 04:36:15;;;;;;;8.80;7.90;;;25.00;54.90;;;;;;5092849;28;20189;-70
2021/09/09 04:38:44;;;;;;;8.90;8.10;;;25.00;54.90;;;;;;5106282;28;20203;-69
2021/09/09 04:41:15;;;;;;;8.07;7.37;;;25.00;54.90;;;;;;5080931;28;20201;-70
2021/09/09 04:43:45;;;;;;;8.80;7.90;;;25.00;54.80;;;;;;5089248;28;20200;-70
2021/09/09 04:46:18;;;;;;;8.40;7.60;;;25.00;54.80;;;;;;5093494;28;20682;-70
2021/09/09 04:48:47;;;;;;;8.50;7.70;;;25.00;54.80;;;;;;5107438;28;20220;-70
2021/09/09 04:51:19;;;;;;;8.63;7.83;;;25.00;54.80;;;;;;5114608;28;20256;-69
2021/09/09 04:53:48;;;;;;;8.60;7.80;;;25.00;54.80;;;;;;5099455;28;20272;-70
2021/09/09 04:56:23;;;;;;;9.30;7.80;;;25.00;54.80;;;;;;5087178;28;20564;-69
2021/09/09 04:58:52;;;;;;;8.40;7.70;;;25.00;54.80;;;;;;5108834;28;20192;-69
2021/09/09 05:01:22;;;;;;;8.43;7.67;;;25.00;54.80;;;;;;5087716;28;20201;-70
2021/09/09 05:03:55;;;;;;;8.83;8.03;;;25.00;54.80;;;;;;5109936;28;20198;-71
2021/09/09 05:06:25;;;;;;;9.40;8.50;;;25.00;54.80;;;;;;5104668;28;20204;-71
2021/09/09 05:08:56;;;;;;;8.87;8.07;;;25.00;54.80;;;;;;5088359;28;20200;-70
2021/09/09 05:11:26;;;;;;;10.90;8.87;;;25.00;55.00;;;;;;5105366;28;20207;-70
2021/09/09 05:13:57;;;;;;;9.93;9.03;;;24.90;55.00;;;;;;5092077;28;20669;-70
2021/09/09 05:16:29;;;;;;;10.10;9.07;;;25.00;55.00;;;;;;5103570;28;20199;-69
2021/09/09 05:19:01;;;;;;;9.70;8.70;;;24.90;54.90;;;;;;5091491;28;20199;-70
2021/09/09 05:21:33;;;;;;;17.77;10.80;;;25.00;54.90;;;;;;5105102;28;20193;-70
2021/09/09 05:24:03;;;;;;;40.90;18.17;;;24.90;55.00;;;;;;5098250;28;20761;-69
2021/09/09 05:26:33;;;;;;;45.67;17.77;;;25.00;56.00;;;;;;5103242;28;20186;-69
2021/09/09 05:29:05;;;;;;;45.03;16.23;;;24.90;56.10;;;;;;5108179;28;20253;-70
2021/09/09 05:31:35;;;;;;;30.93;15.83;;;24.90;56.30;;;;;;5080505;28;20534;-70
2021/09/09 05:34:09;;;;;;;30.30;15.93;;;24.90;56.30;;;;;;5099539;28;20200;-69
2021/09/09 05:36:39;;;;;;;28.03;15.03;;;24.90;56.20;;;;;;5095943;28;20201;-70
2021/09/09 05:39:14;;;;;;;20.70;14.13;;;24.90;56.10;;;;;;5106496;28;20200;-70
2021/09/09 05:41:53;;;;;;;23.13;14.00;;;24.90;55.90;;;;;;5103285;28;20189;-70
2021/09/09 05:44:23;;;;;;;21.07;13.70;;;24.90;55.80;;;;;;5102295;28;20519;-70
2021/09/09 05:46:53;;;;;;;18.53;13.40;;;24.90;55.60;;;;;;5092179;28;20201;-70
2021/09/09 05:49:26;;;;;;;22.67;13.80;;;24.90;55.50;;;;;;5085682;28;20233;-69
2021/09/09 05:51:58;;;;;;;17.07;13.23;;;24.90;55.30;;;;;;5076546;28;20212;-70
2021/09/09 05:54:31;;;;;;;13.63;12.00;;;24.90;55.20;;;;;;5106943;28;20254;-70
2021/09/09 05:57:10;;;;;;;15.67;12.00;;;24.90;55.00;;;;;;5093053;28;20211;-70
2021/09/09 05:59:39;;;;;;;16.27;12.40;;;24.90;55.00;;;;;;5081664;28;20189;-70
2021/09/09 06:02:15;;;;;;;16.13;12.20;;;24.90;54.60;;;;;;5070366;28;20556;-70
2021/09/09 06:04:45;;;;;;;14.80;12.60;;;24.90;54.30;;;;;;5059189;28;20189;-70
2021/09/09 06:07:14;;;;;;;15.67;12.83;;;24.80;54.30;;;;;;5094456;28;20209;-70
2021/09/09 06:09:46;;;;;;;16.27;13.27;;;24.80;54.00;;;;;;5095639;28;20204;-70
2021/09/09 06:12:19;;;;;;;14.07;12.67;;;24.80;53.90;;;;;;5089022;28;20228;-69
2021/09/09 06:14:49;;;;;;;13.73;12.33;;;24.80;53.70;;;;;;5092401;28;20586;-70
2021/09/09 06:17:20;;;;;;;15.17;12.90;;;24.80;53.70;;;;;;5109430;28;20685;-69
2021/09/09 06:19:51;;;;;;;12.93;11.70;;;24.80;53.50;;;;;;5113625;28;20185;-70
2021/09/09 06:22:25;;;;;;;14.83;13.17;;;24.70;53.50;;;;;;5110276;28;20192;-70
2021/09/09 06:24:55;;;;;;;14.27;12.80;;;24.70;53.80;;;;;;5104549;28;20234;-70
2021/09/09 06:27:27;;;;;;;15.30;13.07;;;24.70;53.70;;;;;;5110688;28;20181;-70
2021/09/09 06:29:59;;;;;;;17.00;12.30;;;24.70;53.70;;;;;;5098443;28;20208;-70
2021/09/09 06:32:31;;;;;;;14.63;12.10;;;24.70;53.60;;;;;;5105070;28;20196;-70
2021/09/09 06:35:02;;;;;;;13.27;11.90;;;24.70;54.60;;;;;;5110095;28;20223;-71
2021/09/09 06:37:31;;;;;;;12.53;11.40;;;24.70;54.20;;;;;;5110081;28;20257;-71
2021/09/09 06:40:15;;;;;;;14.50;12.07;;;24.70;53.90;;;;;;5108515;28;20577;-71
2021/09/09 06:42:45;;;;;;;12.67;11.47;;;24.70;53.70;;;;;;5104673;28;20200;-70
2021/09/09 06:45:20;;;;;;;12.70;11.40;;;24.70;53.70;;;;;;5091292;28;20234;-70
2021/09/09 06:47:51;;;;;;;13.43;12.03;;;24.70;53.70;;;;;;5110850;28;20185;-70
2021/09/09 06:50:19;;;;;;;12.57;11.37;;;24.60;53.60;;;;;;5107374;28;20917;-70
2021/09/09 06:52:50;;;;;;;12.80;11.00;;;24.60;53.70;;;;;;5105090;28;20193;-71
2021/09/09 06:55:19;;;;;;;30.30;14.30;;;24.60;53.80;;;;;;5107737;28;20212;-71
2021/09/09 06:57:53;;;;;;;71.00;23.53;;;24.70;54.20;;;;;;5106898;28;20189;-71
2021/09/09 07:00:27;;;;;;;40.03;19.17;;;24.70;55.40;;;;;;5089177;28;20258;-70
2021/09/09 07:02:58;;;;;;;33.03;17.57;;;24.70;56.30;;;;;;5110608;28;20231;-70
2021/09/09 07:05:27;;;;;;;27.27;16.10;;;24.70;56.10;;;;;;5110793;28;20200;-71
2021/09/09 07:07:58;;;;;;;27.30;14.67;;;24.70;56.00;;;;;;5103522;28;20240;-71
2021/09/09 07:10:39;;;;;;;18.83;13.03;;;24.70;55.90;;;;;;5105443;28;20565;-71
2021/09/09 07:13:13;;;;;;;20.43;13.37;;;24.70;55.80;;;;;;5106611;28;20247;-70
2021/09/09 07:15:44;;;;;;;17.53;12.90;;;24.60;55.60;;;;;;5078795;28;20278;-70
2021/09/09 07:18:13;;;;;;;14.30;12.33;;;24.70;55.70;;;;;;5089631;28;20690;-71
2021/09/09 07:20:44;;;;;;;13.47;11.83;;;24.70;55.70;;;;;;5110399;28;20193;-70
2021/09/09 07:23:12;;;;;;;13.37;11.93;;;24.70;55.60;;;;;;5089839;28;20200;-71
2021/09/09 07:25:42;;;;;;;14.37;11.53;;;24.70;55.60;;;;;;5097724;28;20221;-71
2021/09/09 07:28:10;;;;;;;12.70;11.40;;;24.70;55.50;;;;;;5088630;28;20211;-70
2021/09/09 07:30:39;;;;;;;13.30;11.90;;;24.70;55.50;;;;;;5108756;28;20197;-70
2021/09/09 07:33:14;;;;;;;13.93;12.37;;;24.70;55.40;;;;;;5091700;27;20256;-71
2021/09/09 07:35:48;;;;;;;12.50;11.20;;;24.70;55.40;;;;;;5090339;28;20238;-71
2021/09/09 07:38:18;;;;;;;13.67;12.27;;;24.70;55.50;;;;;;5100724;27;20211;-70
2021/09/09 07:40:49;;;;;;;14.10;11.67;;;24.70;55.50;;;;;;5105921;28;20661;-70
2021/09/09 07:43:19;;;;;;;14.47;11.93;;;24.70;55.50;;;;;;5106892;28;20200;-70
2021/09/09 07:45:50;;;;;;;13.70;11.73;;;24.70;55.50;;;;;;5104085;28;20219;-70
2021/09/09 07:48:23;;;;;;;14.07;11.50;;;24.70;55.60;;;;;;5103694;28;20563;-68
2021/09/09 07:50:52;;;;;;;12.57;11.27;;;24.70;55.90;;;;;;5065319;28;20842;-69
2021/09/09 07:53:23;;;;;;;12.97;11.67;;;24.80;55.90;;;;;;5070693;28;20209;-70
2021/09/09 07:55:55;;;;;;;12.07;10.77;;;24.70;55.70;;;;;;5083202;28;20290;-70
2021/09/09 07:58:27;;;;;;;12.37;11.07;;;24.80;55.80;;;;;;5085874;28;20196;-69
2021/09/09 08:00:58;;;;;;;12.87;11.63;;;24.80;55.90;;;;;;5075890;28;20204;-69
2021/09/09 08:03:30;;;;;;;12.50;11.27;;;24.90;55.60;;;;;;5087532;28;20193;-67
2021/09/09 08:06:02;;;;;;;12.27;11.00;;;24.90;55.50;;;;;;5090476;28;20227;-67
2021/09/09 08:08:32;;;;;;;16.10;10.57;;;24.90;55.40;;;;;;5086549;28;20208;-71
2021/09/09 08:11:04;;;;;;;13.27;10.97;;;24.90;55.90;;;;;;5090322;28;20216;-72
2021/09/09 08:13:35;;;;;;;11.47;10.03;;;25.00;55.30;;;;;;5086360;28;20212;-71
2021/09/09 08:16:09;;;;;;;12.67;10.63;;;25.00;55.10;;;;;;5068123;28;20311;-70
2021/09/09 08:18:41;;;;;;;11.60;10.40;;;25.00;55.00;;;;;;5084791;28;20630;-71
2021/09/09 08:21:09;;;;;;;16.97;10.90;;;25.10;54.90;;;;;;5090596;28;20206;-67
2021/09/09 08:23:44;;;;;;;11.03;9.77;;;25.10;54.80;;;;;;5088221;28;20207;-68
2021/09/09 08:26:11;;;;;;;11.70;10.50;;;25.10;54.90;;;;;;5071901;28;20197;-68
2021/09/09 08:28:42;;;;;;;11.80;10.60;;;25.10;54.80;;;;;;5081609;28;20228;-70
2021/09/09 08:31:15;;;;;;;12.23;10.63;;;25.10;54.90;;;;;;5084647;28;20244;-67
2021/09/09 08:33:45;;;;;;;10.93;9.93;;;25.20;55.00;;;;;;5066348;28;20208;-69
2021/09/09 08:36:18;;;;;;;11.07;9.97;;;25.20;54.90;;;;;;5088021;28;20231;-69
2021/09/09 08:38:50;;;;;;;12.50;10.83;;;25.20;54.90;;;;;;5080737;28;20648;-68
2021/09/09 08:41:21;;;;;;;11.73;10.43;;;25.20;54.90;;;;;;5064651;28;20849;-68
2021/09/09 08:44:01;;;;;;;12.40;11.10;;;25.30;54.90;;;;;;5087641;28;20205;-67
2021/09/09 08:46:33;;;;;;;18.63;11.57;;;25.40;55.00;;;;;;5083018;28;20219;-69
2021/09/09 08:49:04;;;;;;;13.70;11.57;;;25.40;55.00;;;;;;5087807;28;20232;-68
2021/09/09 08:51:35;;;;;;;12.53;10.40;;;25.30;54.90;;;;;;5106813;28;20203;-69
2021/09/09 08:54:07;;;;;;;10.63;9.30;;;25.40;55.00;;;;;;5109449;28;20228;-70
2021/09/09 08:56:38;;;;;;;11.53;9.10;;;25.50;55.30;;;;;;5108649;28;20281;-69
2021/09/09 08:59:11;;;;;;;9.50;8.43;;;25.50;55.50;;;;;;5088155;28;20208;-68
2021/09/09 09:02:01;;;;;;;9.07;8.17;;;25.60;55.50;;;;;;5108386;28;20216;-68
2021/09/09 09:04:36;;;;;;;9.50;8.53;;;25.60;55.30;;;;;;5109581;28;20223;-68
2021/09/09 09:07:08;;;;;;;11.17;8.50;;;25.60;55.20;;;;;;5109515;28;20204;-67
2021/09/09 09:09:37;;;;;;;9.03;8.07;;;25.70;55.40;;;;;;5078700;28;20232;-69
2021/09/09 09:12:11;;;;;;;9.43;8.53;;;25.70;55.50;;;;;;5103410;28;20294;-69
2021/09/09 09:14:41;;;;;;;9.43;8.43;;;25.80;55.40;;;;;;5091822;27;20196;-70
2021/09/09 09:17:14;;;;;;;9.57;8.67;;;25.80;55.40;;;;;;5083308;28;20232;-70
2021/09/09 09:19:42;;;;;;;9.13;8.23;;;25.90;55.10;;;;;;5091329;28;20200;-70
2021/09/09 09:22:15;;;;;;;9.17;8.27;;;25.90;55.10;;;;;;5089291;28;20196;-69
2021/09/09 09:24:47;;;;;;;10.30;8.87;;;25.90;55.10;;;;;;5084202;28;20207;-69
2021/09/09 09:27:21;;;;;;;8.83;8.03;;;26.00;55.10;;;;;;5106519;28;20200;-69
2021/09/09 09:30:08;;;;;;;10.77;9.17;;;26.00;55.00;;;;;;5089069;28;20199;-70
2021/09/09 09:32:58;;;;;;;8.77;8.00;;;26.00;54.80;;;;;;5089686;28;20242;-67
2021/09/09 09:35:33;;;;;;;8.37;7.57;;;26.10;55.00;;;;;;5095122;28;20208;-68
2021/09/09 09:38:08;;;;;;;9.13;8.33;;;26.10;55.30;;;;;;5110680;28;20255;-68
2021/09/09 09:40:54;;;;;;;10.00;8.93;;;26.10;55.40;;;;;;5101381;28;20207;-70
2021/09/09 09:43:25;;;;;;;10.87;9.10;;;26.10;55.00;;;;;;5095548;28;20184;-70
2021/09/09 09:45:58;;;;;;;13.27;8.70;;;26.10;54.90;;;;;;5103211;28;20668;-71
2021/09/09 09:48:31;;;;;;;9.00;8.10;;;26.10;55.70;;;;;;5109867;28;20203;-69
2021/09/09 09:51:02;;;;;;;9.70;8.63;;;26.20;55.30;;;;;;5086789;28;20265;-70
2021/09/09 09:53:31;;;;;;;8.93;8.10;;;26.20;55.10;;;;;;5109028;28;20200;-69
2021/09/09 09:56:03;;;;;;;15.90;9.87;;;26.30;55.20;;;;;;5104771;28;20444;-69
2021/09/09 09:58:33;;;;;;;11.00;9.90;;;26.30;54.90;;;;;;5107442;28;20193;-70
2021/09/09 10:01:03;;;;;;;11.40;10.23;;;26.20;54.90;;;;;;5067588;28;20210;-69
2021/09/09 10:03:35;;;;;;;13.47;10.80;;;26.20;55.00;;;;;;5093302;28;20199;-70
2021/09/09 10:06:16;;;;;;;11.20;10.10;;;26.20;55.20;;;;;;5109854;28;20273;-70
2021/09/09 10:09:13;;;;;;;11.00;9.57;;;26.10;55.20;;;;;;5079390;28;20192;-70
2021/09/09 10:11:46;;;;;;;10.37;9.37;;;26.10;55.40;;;;;;5090702;28;20208;-70
2021/09/09 10:14:39;;;;;;;11.10;9.83;;;26.10;55.50;;;;;;5112601;28;20211;-70
2021/09/09 10:17:16;;;;;;;10.03;8.93;;;26.10;55.50;;;;;;5089667;28;20217;-71
2021/09/09 10:19:46;;;;;;;10.00;9.03;;;26.10;55.40;;;;;;5094113;28;20892;-69
2021/09/09 10:22:16;;;;;;;11.13;9.57;;;26.10;55.70;;;;;;5065718;28;20562;-69
2021/09/09 10:25:02;;;;;;;12.00;9.40;;;26.10;55.70;;;;;;5087092;28;20542;-70
2021/09/09 10:27:46;;;;;;;11.23;9.67;;;26.10;55.50;;;;;;5091613;28;20197;-70
2021/09/09 10:30:20;;;;;;;10.47;9.33;;;26.20;56.00;;;;;;5098833;28;20203;-70
2021/09/09 10:32:54;;;;;;;10.97;9.13;;;26.20;55.80;;;;;;5091319;28;20185;-70
2021/09/09 10:35:30;;;;;;;9.20;8.30;;;26.20;55.90;;;;;;5103693;28;20204;-70
2021/09/09 10:38:27;;;;;;;13.43;10.03;;;26.20;55.80;;;;;;5079946;28;20195;-69
2021/09/09 10:41:01;;;;;;;8.77;7.87;;;26.20;57.10;;;;;;5106483;28;20204;-70
2021/09/09 10:43:37;;;;;;;10.27;9.37;;;26.20;56.20;;;;;;5094908;28;20633;-70
2021/09/09 10:46:13;;;;;;;9.53;8.50;;;26.30;56.80;;;;;;5100081;28;20536;-69
2021/09/09 10:49:04;;;;;;;12.13;8.90;;;26.30;56.80;;;;;;5090238;28;20220;-69
2021/09/09 10:51:35;;;;;;;11.63;8.63;;;26.40;57.10;;;;;;5105291;28;20728;-67
2021/09/09 10:54:15;;;;;;;10.77;9.77;;;26.40;56.60;;;;;;5084725;28;20230;-67
2021/09/09 10:56:44;;;;;;;10.73;9.37;;;26.40;57.10;;;;;;5093256;28;20215;-69
2021/09/09 10:59:19;;;;;;;10.30;9.20;;;26.40;56.90;;;;;;5110649;28;20203;-69
2021/09/09 11:01:49;;;;;;;11.00;8.30;;;26.40;56.90;;;;;;5076648;28;20230;-69
2021/09/09 11:04:34;;;;;;;9.33;8.43;;;26.60;58.30;;;;;;5107652;28;20345;-68
2021/09/09 11:07:22;;;;;;;9.20;8.30;;;26.70;58.30;;;;;;5086122;28;20585;-68
2021/09/09 11:10:10;;;;;;;10.57;8.70;;;26.80;58.20;;;;;;5092744;28;20591;-70
2021/09/09 11:13:00;;;;;;;8.50;7.70;;;26.90;58.50;;;;;;5095525;28;20526;-70
2021/09/09 11:15:34;;;;;;;10.73;7.63;;;27.00;58.20;;;;;;5082235;28;20209;-70
2021/09/09 11:18:07;;;;;;;9.47;7.90;;;27.10;58.20;;;;;;5107987;28;20208;-70
2021/09/09 11:20:38;;;;;;;8.60;7.67;;;27.20;58.50;;;;;;5091512;28;20215;-71
2021/09/09 11:23:13;;;;;;;10.80;8.33;;;27.20;58.10;;;;;;5109146;28;20207;-69
2021/09/09 11:25:49;;;;;;;8.87;8.07;;;27.30;58.10;;;;;;5094028;28;20192;-72
2021/09/09 11:28:21;;;;;;;8.73;7.83;;;27.30;57.90;;;;;;5106864;27;20689;-72
2021/09/09 11:31:12;;;;;;;9.93;7.63;;;27.40;58.10;;;;;;5113179;27;20216;-71
2021/09/09 11:33:53;;;;;;;8.40;7.60;;;27.40;58.10;;;;;;5108514;28;20192;-70
2021/09/09 11:36:38;;;;;;;9.00;8.03;;;27.50;58.20;;;;;;5060603;28;20242;-70
2021/09/09 11:39:20;;;;;;;8.27;7.47;;;27.60;58.40;;;;;;5090452;28;20258;-70
2021/09/09 11:41:49;;;;;;;8.70;7.80;;;27.60;58.30;;;;;;5080391;28;20235;-70
2021/09/09 11:44:34;;;;;;;8.40;7.57;;;27.70;58.80;;;;;;5107368;28;20223;-68
2021/09/09 11:47:15;;;;;;;8.87;7.97;;;27.70;57.90;;;;;;5106737;28;20212;-69
2021/09/09 11:49:46;;;;;;;8.27;7.47;;;27.70;57.70;;;;;;5109904;28;20220;-70
2021/09/09 11:52:20;;;;;;;8.43;7.50;;;27.80;57.80;;;;;;5110425;28;21409;-70
2021/09/09 11:54:51;;;;;;;8.80;7.97;;;27.80;57.60;;;;;;5111099;28;20528;-69
2021/09/09 11:57:29;;;;;;;8.17;7.37;;;27.90;57.50;;;;;;5110194;28;20212;-70
2021/09/09 12:00:02;;;;;;;8.43;7.53;;;27.90;57.50;;;;;;5104161;28;20196;-70
2021/09/09 12:02:35;;;;;;;8.10;7.30;;;28.00;57.60;;;;;;5107801;28;20207;-68
2021/09/09 12:05:08;;;;;;;8.73;6.77;;;28.00;57.80;;;;;;5081971;28;20637;-69
2021/09/09 12:07:39;;;;;;;14.20;7.03;;;28.00;57.50;;;;;;5089875;28;20208;-70
2021/09/09 12:10:20;;;;;;;8.13;7.30;;;28.10;57.90;;;;;;5111480;28;20196;-70
2021/09/09 12:13:04;;;;;;;8.70;6.60;;;28.10;57.50;;;;;;5102215;28;20200;-69
2021/09/09 12:15:33;;;;;;;8.87;6.47;;;28.20;57.50;;;;;;5093738;28;20199;-68
2021/09/09 12:18:12;;;;;;;7.60;6.90;;;28.20;57.60;;;;;;5086627;28;20280;-68
2021/09/09 12:20:49;;;;;;;7.43;6.67;;;28.30;57.70;;;;;;5082625;28;20246;-68
2021/09/09 12:23:19;;;;;;;7.40;6.70;;;28.30;57.80;;;;;;5102008;28;20208;-71
2021/09/09 12:26:15;;;;;;;6.93;6.30;;;28.30;57.50;;;;;;5103544;28;20205;-69
2021/09/09 12:28:48;;;;;;;6.50;5.93;;;28.40;57.50;;;;;;5108156;28;20657;-69
2021/09/09 12:31:34;;;;;;;7.23;6.30;;;28.40;57.20;;;;;;5108142;28;20795;-71
2021/09/09 12:34:18;;;;;;;8.30;6.03;;;28.40;57.10;;;;;;5084136;28;20193;-68
2021/09/09 12:36:52;;;;;;;6.03;5.43;;;28.40;57.30;;;;;;5092517;28;20909;-69
2021/09/09 12:39:23;;;;;;;6.87;5.57;;;28.50;57.10;;;;;;5079448;28;20588;-68
2021/09/09 12:42:06;;;;;;;6.30;5.70;;;28.50;57.10;;;;;;5103050;28;20726;-73
2021/09/09 12:44:37;;;;;;;6.97;5.93;;;28.50;57.10;;;;;;5078241;28;20278;-71
2021/09/09 12:47:18;;;;;;;9.30;6.30;;;28.50;57.30;;;;;;5071597;28;20610;-70
2021/09/09 12:49:45;;;;;;;6.97;6.03;;;28.50;57.10;;;;;;5108759;28;20608;-68
2021/09/09 12:52:27;;;;;;;7.63;6.50;;;28.60;57.10;;;;;;5092744;28;20298;-69
2021/09/09 12:54:57;;;;;;;7.47;6.47;;;28.60;57.00;;;;;;5108708;28;20208;-72
2021/09/09 12:57:30;;;;;;;6.90;6.20;;;28.60;57.10;;;;;;5096652;28;20244;-71
2021/09/09 13:00:03;;;;;;;7.30;6.70;;;28.70;57.30;;;;;;5101979;28;20220;-72
2021/09/09 13:02:34;;;;;;;7.33;6.60;;;28.70;57.80;;;;;;5109423;28;20697;-69
2021/09/09 13:05:04;;;;;;;8.90;6.93;;;28.70;57.00;;;;;;5108030;28;20212;-70
2021/09/09 13:07:36;;;;;;;6.80;6.10;;;28.80;57.40;;;;;;5097181;28;20201;-68
2021/09/09 13:10:09;;;;;;;6.70;6.03;;;28.80;57.00;;;;;;5098004;28;20207;-69